Nearby METAR Reports

 

KALB - Albany, New York, USA
Distance from station: E 47mi, 75km
Updated: Mon, 11-Dec-2017 10:51pm EST
Overcast
Overcast
 Wind from calm
Wind: Calm
Temperature: 30°F , -1°C
Dew Point: 19°F , -7°C
Humidity: 64%
Barometer: 29.95 inHg , 1014.2 hPa
Clouds: Overcast
Visibility: 10 miles , 16 km
Cloud details: Few Clouds 5000 ft
Overcast 7000 ft
2017/12/12 03:51 KALB 120351Z 00000KT 10SM FEW050 OVC070 M01/M07 A2995 RMK AO2 SLP144 T10111072
KSLK - Saranac Lake, New York, USA
Distance from station: N 110mi, 177km
Updated: Mon, 11-Dec-2017 10:51pm EST
Overcast
Overcast
 Wind from NE
Wind: NE 5 mph , 7 km/h
Temperature: 10°F , -12°C
Wind Chill: 1°F , -17°C
Dew Point: 9°F , -13°C
Humidity: 92%
Barometer: 29.81 inHg , 1009.5 hPa
Clouds: Overcast
Visibility: 10 miles , 16 km
Cloud details: Overcast 8500 ft
2017/12/12 03:51 KSLK 120351Z AUTO 05004KT 10SM OVC085 M12/M13 A2981 RMK AO2 SLP125 T11171133 $
 
KSYR - Syracuse, New York, USA
Distance from station: W 73mi, 117km
Updated: Mon, 11-Dec-2017 11:12pm EST
Light snow, Mist, Overcast
Light snow, Mist, Overcast
 Wind from ENE
Wind: ENE 9 mph , 15 km/h
Temperature: 25°F , -4°C
Wind Chill: 16°F , -9°C
Dew Point: 25°F , -4°C
Humidity: 100%
Barometer: 29.82 inHg , 1009.8 hPa
Summary: Light snow, Mist
Clouds: Overcast
Visibility: 2 miles , 3 km
Cloud details: Overcast 2500 ft
2017/12/12 04:12 KSYR 120412Z 06008KT 2SM -SN BR OVC025 M04/M04 A2982 RMK AO2 P0000 T10391044 $
KBGM - Binghamton, New York, USA
Distance from station: SW 78mi, 126km
Updated: Mon, 11-Dec-2017 10:53pm EST
Light snow, Overcast
Light snow, Overcast
 Wind from SSE
Wind: SSE 9 mph , 15 km/h
Temperature: 27°F , -3°C
Wind Chill: 18°F , -8°C
Dew Point: 19°F , -7°C
Humidity: 74%
Barometer: 29.76 inHg , 1007.8 hPa
Summary: Light Snow
Clouds: Overcast
Visibility: 6 miles , 10 km
Cloud details: Overcast 4600 ft
2017/12/12 03:53 KBGM 120353Z 16008KT 6SM -SN OVC046 M03/M07 A2976 RMK AO2 SNB37 SLP098 P0000 T10281072
 
KRME - Rome, New York, USA
Distance from station: WNW 43mi, 69km
Updated: Mon, 11-Dec-2017 11:19pm EST
Light snow, Mist, Overcast
Light snow, Mist, Overcast
 Wind from ESE
Wind: ESE 7 mph , 11 km/h
Temperature: 25°F , -4°C
Wind Chill: 17°F , -8°C
Dew Point: 21°F , -6°C
Humidity: 86%
Barometer: 29.87 inHg , 1011.5 hPa
Summary: Light snow, Mist
Clouds: Overcast
Visibility: 2 1/2 miles , 2 km
Cloud details: Overcast 2800 ft
2017/12/12 04:19 KRME 120419Z AUTO 11006KT 2 1/2SM -SN BR OVC028 M04/M06 A2987 RMK AO2 P0000 T10391061
KJFK - New York, New York, USA
Distance from station: SSE 159mi, 256km
Updated: Mon, 11-Dec-2017 10:51pm EST
Overcast
Overcast
 Wind from E
Wind: E 5 mph , 7 km/h
Temperature: 36°F , 2°C
Wind Chill: 32°F , 0°C
Dew Point: 27°F , -3°C
Humidity: 70%
Barometer: 29.98 inHg , 1015.2 hPa
Clouds: Overcast
Visibility: 10 miles , 16 km
Cloud details: Mostly cloudy 8000 ft
Mostly cloudy 12000 ft
Overcast 21000 ft
2017/12/12 03:51 KJFK 120351Z 10004KT 10SM BKN080 BKN120 OVC210 02/M03 A2998 RMK AO2 SLP152 T00221028
 
KROC - Rochester, New York, USA
Distance from station: W 150mi, 242km
Updated: Mon, 11-Dec-2017 10:54pm EST
Light snow, Mist, Overcast
Light snow, Mist, Overcast
 Wind from SE
Wind: SE 9 mph , 15 km/h
Temperature: 27°F , -3°C
Wind Chill: 18°F , -8°C
Dew Point: 25°F , -4°C
Humidity: 93%
Barometer: 29.76 inHg , 1007.8 hPa
Summary: Light snow, Mist
Clouds: Overcast
Visibility: 1 3/4 miles , 5 km
Cloud details: Mostly cloudy 2500 ft
Overcast 3500 ft
2017/12/12 03:54 KROC 120354Z 14008KT 1 3/4SM -SN BR BKN025 OVC035 M03/M04 A2976 RMK AO2 SLP088 P0002 T10281039
KART - Watertown, New York, USA
Distance from station: NNW 103mi, 166km
Updated: Mon, 11-Dec-2017 11:23pm EST
Light snow, Mist, Overcast
Light snow, Mist, Overcast
 Wind from ENE
Wind: ENE 7 mph , 11 km/h
Temperature: 21°F , -6°C
Wind Chill: 12°F , -11°C
Dew Point: 18°F , -8°C
Humidity: 86%
Barometer: 29.82 inHg , 1009.8 hPa
Summary: Light snow, Mist
Clouds: Overcast
Visibility: 1 3/4 miles , 5 km
Cloud details: Mostly cloudy 2500 ft
Mostly cloudy 4000 ft
Overcast 6000 ft
2017/12/12 04:23 KART 120423Z AUTO 06006KT 1 3/4SM -SN BR BKN025 BKN040 OVC060 M06/M08 A2982 RMK AO2 SNB16 P0000 T10561078
 
KELM - Elmira-Corning, New York, USA
Distance from station: SSW 121mi, 195km
Updated: Mon, 11-Dec-2017 10:53pm EST
Overcast
Overcast
 Wind from ESE
Wind: ESE 5 mph , 7 km/h
Temperature: 32°F , 0°C
Wind Chill: 27°F , -3°C
Dew Point: 25°F , -4°C
Humidity: 75%
Barometer: 29.76 inHg , 1007.8 hPa
Clouds: Overcast
Visibility: 10 miles , 16 km
Cloud details: Overcast 6000 ft
2017/12/12 03:53 KELM 120353Z AUTO 11004KT 10SM OVC060 00/M04 A2976 RMK AO2 SNB15E35 SLP088 P0000 T00001044
KJHW - Jamestown, New York, USA
Distance from station: SW 238mi, 383km
Updated: Mon, 11-Dec-2017 11:04pm EST
Overcast
Overcast
 Wind from SW
Wind: SW 3 mph , 6 km/h
Temperature: 27°F , -3°C
Dew Point: 25°F , -4°C
Humidity: 93%
Barometer: 29.66 inHg , 1004.4 hPa
Clouds: Overcast
Visibility: 7 miles , 11 km
Cloud details: Few Clouds 1900 ft
Mostly cloudy 5000 ft
Overcast 6000 ft
2017/12/12 04:04 KJHW 120404Z AUTO 22003KT 7SM FEW019 BKN050 OVC060 M03/M04 A2966 RMK AO2 SNE03 P0000 FZRANO
 
KMSS - Massena, New York, USA
Distance from station: N 141mi, 232km
Updated: Mon, 11-Dec-2017 10:53pm EST
Overcast
Overcast
 Wind from ENE
Wind: ENE 8 mph , 13 km/h
Temperature: 18°F , -8°C
Wind Chill: 8°F , -13°C
Dew Point: 9°F , -13°C
Humidity: 68%
Barometer: 29.95 inHg , 1014.2 hPa
Clouds: Overcast
Visibility: 10 miles , 16 km
Cloud details: Overcast 4200 ft
2017/12/12 03:53 KMSS 120353Z AUTO 07007KT 10SM OVC042 M08/M13 A2995 RMK AO2 SLP149 T10781133
KBUF - Buffalo, New York, USA
Distance from station: W 204mi, 328km
Updated: Mon, 11-Dec-2017 10:54pm EST
Light snow, Mist, Overcast
Light snow, Mist, Overcast
 Wind from SE
Wind: SE 5 mph , 7 km/h
Temperature: 27°F , -3°C
Wind Chill: 21°F , -6°C
Dew Point: 25°F , -4°C
Humidity: 93%
Barometer: 29.72 inHg , 1006.4 hPa
Summary: Light snow, Mist
Clouds: Overcast
Visibility: 1 1/2 miles , 2 km
Cloud details: Partly cloudy 1600 ft
Overcast 2200 ft
2017/12/12 03:54 KBUF 120354Z 14004KT 1 1/2SM -SN BR SCT016 OVC022 M03/M04 A2972 RMK AO2 SLP074 P0001 T10281039 $